sensor_id;sensor_type;location;lat;lon;timestamp;pressure;altitude;pressure_sealevel;temperature;humidity
66396;BME280;53207;51.378;-1.342;2023-03-18T00:00:20;99067.59;;;19.72;37.05
66396;BME280;53207;51.378;-1.342;2023-03-18T00:02:52;99064.23;;;19.98;36.97
66396;BME280;53207;51.378;-1.342;2023-03-18T00:05:20;99064.18;;;20.47;36.97
66396;BME280;53207;51.378;-1.342;2023-03-18T00:07:47;99064.48;;;20.19;36.95
66396;BME280;53207;51.378;-1.342;2023-03-18T00:10:15;99064.87;;;20.23;36.91
66396;BME280;53207;51.378;-1.342;2023-03-18T00:12:42;99066.63;;;20.16;37.00
66396;BME280;53207;51.378;-1.342;2023-03-18T00:15:12;99070.10;;;20.21;36.91
66396;BME280;53207;51.378;-1.342;2023-03-18T00:17:39;99068.51;;;20.18;36.94
66396;BME280;53207;51.378;-1.342;2023-03-18T00:20:09;99069.74;;;20.18;36.94
66396;BME280;53207;51.378;-1.342;2023-03-18T00:22:37;99067.68;;;20.19;36.91
66396;BME280;53207;51.378;-1.342;2023-03-18T00:25:07;99068.34;;;20.36;37.00
66396;BME280;53207;51.378;-1.342;2023-03-18T00:27:35;99072.06;;;20.03;37.10
66396;BME280;53207;51.378;-1.342;2023-03-18T00:30:03;99070.56;;;20.14;36.94
66396;BME280;53207;51.378;-1.342;2023-03-18T00:32:31;99068.06;;;20.20;36.82
66396;BME280;53207;51.378;-1.342;2023-03-18T00:34:58;99068.22;;;20.10;36.97
66396;BME280;53207;51.378;-1.342;2023-03-18T00:37:26;99066.00;;;20.12;36.92
66396;BME280;53207;51.378;-1.342;2023-03-18T00:39:53;99064.64;;;20.13;36.91
66396;BME280;53207;51.378;-1.342;2023-03-18T00:42:20;99063.44;;;19.89;36.89
66396;BME280;53207;51.378;-1.342;2023-03-18T00:44:47;99061.26;;;20.09;36.95
66396;BME280;53207;51.378;-1.342;2023-03-18T00:47:15;99061.20;;;20.33;36.94
66396;BME280;53207;51.378;-1.342;2023-03-18T00:49:42;99059.43;;;20.33;36.91
66396;BME280;53207;51.378;-1.342;2023-03-18T00:52:09;99062.32;;;20.11;36.84
66396;BME280;53207;51.378;-1.342;2023-03-18T00:54:37;99060.02;;;20.11;36.85
66396;BME280;53207;51.378;-1.342;2023-03-18T00:57:04;99060.80;;;20.03;36.94
66396;BME280;53207;51.378;-1.342;2023-03-18T00:59:31;99062.69;;;19.99;36.96
66396;BME280;53207;51.378;-1.342;2023-03-18T01:01:59;99059.54;;;20.01;36.94
66396;BME280;53207;51.378;-1.342;2023-03-18T01:04:26;99059.84;;;20.08;36.82
66396;BME280;53207;51.378;-1.342;2023-03-18T01:06:53;99059.01;;;19.98;36.97
66396;BME280;53207;51.378;-1.342;2023-03-18T01:09:21;99058.87;;;20.00;36.90
66396;BME280;53207;51.378;-1.342;2023-03-18T01:11:48;99059.63;;;20.00;36.91
66396;BME280;53207;51.378;-1.342;2023-03-18T01:14:15;99057.96;;;19.99;36.90
66396;BME280;53207;51.378;-1.342;2023-03-18T01:16:42;99058.08;;;19.91;36.99
66396;BME280;53207;51.378;-1.342;2023-03-18T01:19:10;99058.75;;;19.99;36.88
66396;BME280;53207;51.378;-1.342;2023-03-18T01:21:37;99053.52;;;19.92;36.96
66396;BME280;53207;51.378;-1.342;2023-03-18T01:24:05;99053.41;;;19.98;36.86
66396;BME280;53207;51.378;-1.342;2023-03-18T01:26:33;99052.67;;;19.90;36.96
66396;BME280;53207;51.378;-1.342;2023-03-18T01:29:00;99051.07;;;20.25;36.85
66396;BME280;53207;51.378;-1.342;2023-03-18T01:31:28;99049.57;;;19.91;36.92
66396;BME280;53207;51.378;-1.342;2023-03-18T01:33:54;99043.43;;;20.10;36.99
66396;BME280;53207;51.378;-1.342;2023-03-18T01:36:22;99042.99;;;19.86;36.97
66396;BME280;53207;51.378;-1.342;2023-03-18T01:38:49;99040.20;;;20.11;36.96
66396;BME280;53207;51.378;-1.342;2023-03-18T01:41:16;99038.22;;;19.85;36.96
66396;BME280;53207;51.378;-1.342;2023-03-18T01:43:44;99036.31;;;19.85;36.93
66396;BME280;53207;51.378;-1.342;2023-03-18T01:46:37;99035.28;;;20.04;37.00
66396;BME280;53207;51.378;-1.342;2023-03-18T01:49:08;99033.35;;;19.78;36.98
66396;BME280;53207;51.378;-1.342;2023-03-18T01:51:37;99033.29;;;19.80;36.94
66396;BME280;53207;51.378;-1.342;2023-03-18T01:54:06;99031.09;;;20.03;36.96
66396;BME280;53207;51.378;-1.342;2023-03-18T01:56:36;99029.99;;;19.78;36.92
66396;BME280;53207;51.378;-1.342;2023-03-18T01:59:06;99027.61;;;19.84;36.86
66396;BME280;53207;51.378;-1.342;2023-03-18T02:01:39;99025.35;;;19.86;36.83
66396;BME280;53207;51.378;-1.342;2023-03-18T02:04:09;99026.51;;;20.09;36.85
66396;BME280;53207;51.378;-1.342;2023-03-18T02:06:36;99024.91;;;20.04;36.90
66396;BME280;53207;51.378;-1.342;2023-03-18T02:09:05;99023.17;;;19.70;37.00
66396;BME280;53207;51.378;-1.342;2023-03-18T02:11:35;99024.52;;;19.97;36.96
66396;BME280;53207;51.378;-1.342;2023-03-18T02:14:04;99025.17;;;19.96;36.97
66396;BME280;53207;51.378;-1.342;2023-03-18T02:16:36;99023.27;;;19.95;36.97
66396;BME280;53207;51.378;-1.342;2023-03-18T02:19:13;99023.91;;;19.75;36.86
66396;BME280;53207;51.378;-1.342;2023-03-18T02:21:49;99022.76;;;19.90;37.01
66396;BME280;53207;51.378;-1.342;2023-03-18T02:24:28;99021.04;;;19.94;36.95
66396;BME280;53207;51.378;-1.342;2023-03-18T02:26:59;99017.50;;;19.97;36.89
66396;BME280;53207;51.378;-1.342;2023-03-18T02:29:30;99016.22;;;19.97;36.88
66396;BME280;53207;51.378;-1.342;2023-03-18T02:32:00;99012.50;;;19.65;36.93
66396;BME280;53207;51.378;-1.342;2023-03-18T02:34:29;99012.68;;;19.90;36.94
66396;BME280;53207;51.378;-1.342;2023-03-18T02:36:58;99007.63;;;19.65;36.91
66396;BME280;53207;51.378;-1.342;2023-03-18T02:39:25;99002.36;;;19.95;36.83
66396;BME280;53207;51.378;-1.342;2023-03-18T02:41:52;99005.10;;;19.65;36.89
66396;BME280;53207;51.378;-1.342;2023-03-18T02:44:20;99005.79;;;19.64;36.88
66396;BME280;53207;51.378;-1.342;2023-03-18T02:46:52;99008.67;;;19.61;36.89
66396;BME280;53207;51.378;-1.342;2023-03-18T02:49:22;99008.49;;;19.63;36.89
66396;BME280;53207;51.378;-1.342;2023-03-18T02:51:51;99008.15;;;19.64;36.85
66396;BME280;53207;51.378;-1.342;2023-03-18T02:54:21;99006.45;;;19.44;37.08
66396;BME280;53207;51.378;-1.342;2023-03-18T02:56:49;99004.61;;;19.86;36.89
66396;BME280;53207;51.378;-1.342;2023-03-18T02:59:17;99004.71;;;19.93;36.79
66396;BME280;53207;51.378;-1.342;2023-03-18T03:01:47;99007.52;;;19.59;36.87
66396;BME280;53207;51.378;-1.342;2023-03-18T03:04:15;99007.95;;;19.87;36.86
66396;BME280;53207;51.378;-1.342;2023-03-18T03:06:43;99009.25;;;19.87;36.82
66396;BME280;53207;51.378;-1.342;2023-03-18T03:09:13;99011.56;;;19.43;37.02
66396;BME280;53207;51.378;-1.342;2023-03-18T03:11:42;99012.58;;;19.58;36.83
66396;BME280;53207;51.378;-1.342;2023-03-18T03:14:10;99014.62;;;19.78;36.88
66396;BME280;53207;51.378;-1.342;2023-03-18T03:16:38;99015.30;;;19.79;36.89
66396;BME280;53207;51.378;-1.342;2023-03-18T03:19:05;99016.79;;;19.50;36.91
66396;BME280;53207;51.378;-1.342;2023-03-18T03:21:33;99015.34;;;19.96;36.91
66396;BME280;53207;51.378;-1.342;2023-03-18T03:24:02;99016.17;;;19.99;36.86
66396;BME280;53207;51.378;-1.342;2023-03-18T03:26:29;99021.00;;;19.98;36.87
66396;BME280;53207;51.378;-1.342;2023-03-18T03:28:56;99022.54;;;19.67;37.00
66396;BME280;53207;51.378;-1.342;2023-03-18T03:31:23;99020.31;;;19.49;37.17
66396;BME280;53207;51.378;-1.342;2023-03-18T03:33:51;99024.15;;;19.60;37.05
66396;BME280;53207;51.378;-1.342;2023-03-18T03:36:18;99027.11;;;19.50;36.82
66396;BME280;53207;51.378;-1.342;2023-03-18T03:38:45;99027.24;;;19.71;36.86
66396;BME280;53207;51.378;-1.342;2023-03-18T03:41:13;99028.31;;;19.42;36.90
66396;BME280;53207;51.378;-1.342;2023-03-18T03:43:41;99028.19;;;19.73;36.82
66396;BME280;53207;51.378;-1.342;2023-03-18T03:46:09;99033.26;;;19.74;36.80
66396;BME280;53207;51.378;-1.342;2023-03-18T03:48:37;99035.35;;;19.65;36.89
66396;BME280;53207;51.378;-1.342;2023-03-18T03:51:05;99035.54;;;19.65;36.87
66396;BME280;53207;51.378;-1.342;2023-03-18T03:53:32;99037.17;;;19.63;36.91
66396;BME280;53207;51.378;-1.342;2023-03-18T03:55:59;99041.22;;;19.43;36.83
66396;BME280;53207;51.378;-1.342;2023-03-18T03:58:27;99042.93;;;19.77;36.97
66396;BME280;53207;51.378;-1.342;2023-03-18T04:00:54;99047.09;;;19.34;36.92
66396;BME280;53207;51.378;-1.342;2023-03-18T04:03:22;99046.10;;;19.36;36.87
66396;BME280;53207;51.378;-1.342;2023-03-18T04:05:49;99049.08;;;19.73;36.72
66396;BME280;53207;51.378;-1.342;2023-03-18T04:08:16;99050.42;;;19.65;37.09
66396;BME280;53207;51.378;-1.342;2023-03-18T04:10:43;99053.02;;;19.37;36.81
66396;BME280;53207;51.378;-1.342;2023-03-18T04:13:11;99054.12;;;19.62;36.81
66396;BME280;53207;51.378;-1.342;2023-03-18T04:15:38;99052.51;;;19.44;37.03
66396;BME280;53207;51.378;-1.342;2023-03-18T04:18:05;99051.37;;;19.29;36.85
66396;BME280;53207;51.378;-1.342;2023-03-18T04:20:33;99051.65;;;19.55;36.85
66396;BME280;53207;51.378;-1.342;2023-03-18T04:23:00;99049.09;;;19.24;37.25
66396;BME280;53207;51.378;-1.342;2023-03-18T04:25:28;99048.38;;;19.66;37.00
66396;BME280;53207;51.378;-1.342;2023-03-18T04:27:55;99044.73;;;19.76;36.84
66396;BME280;53207;51.378;-1.342;2023-03-18T04:30:23;99044.79;;;19.26;37.20
66396;BME280;53207;51.378;-1.342;2023-03-18T04:32:51;99044.03;;;19.51;36.83
66396;BME280;53207;51.378;-1.342;2023-03-18T04:35:19;99043.15;;;19.81;36.76
66396;BME280;53207;51.378;-1.342;2023-03-18T04:37:46;99038.70;;;19.74;36.82
66396;BME280;53207;51.378;-1.342;2023-03-18T04:40:14;99041.39;;;19.48;36.85
66396;BME280;53207;51.378;-1.342;2023-03-18T04:42:41;99039.68;;;19.75;36.78
66396;BME280;53207;51.378;-1.342;2023-03-18T04:45:09;99042.85;;;19.73;36.79
66396;BME280;53207;51.378;-1.342;2023-03-18T04:47:36;99041.09;;;19.49;36.80
66396;BME280;53207;51.378;-1.342;2023-03-18T04:50:04;99045.18;;;19.16;36.87
66396;BME280;53207;51.378;-1.342;2023-03-18T04:52:32;99040.59;;;19.59;36.94
66396;BME280;53207;51.378;-1.342;2023-03-18T04:54:59;99037.60;;;19.42;36.84
66396;BME280;53207;51.378;-1.342;2023-03-18T04:57:26;99036.18;;;19.45;36.81
66396;BME280;53207;51.378;-1.342;2023-03-18T04:59:54;99038.42;;;19.27;37.02
66396;BME280;53207;51.378;-1.342;2023-03-18T05:02:21;99037.22;;;19.70;36.75
66396;BME280;53207;51.378;-1.342;2023-03-18T05:04:48;99037.86;;;19.61;36.84
66396;BME280;53207;51.378;-1.342;2023-03-18T05:07:16;99035.41;;;18.90;37.11
66396;BME280;53207;51.378;-1.342;2023-03-18T05:09:43;99028.03;;;19.66;36.77
66396;BME280;53207;51.378;-1.342;2023-03-18T05:12:12;99028.16;;;19.15;36.79
66396;BME280;53207;51.378;-1.342;2023-03-18T05:14:39;99028.90;;;19.61;36.81
66396;BME280;53207;51.378;-1.342;2023-03-18T05:17:07;99025.42;;;19.46;36.98
66396;BME280;53207;51.378;-1.342;2023-03-18T05:19:34;99029.29;;;19.54;36.87
66396;BME280;53207;51.378;-1.342;2023-03-18T05:22:01;99031.06;;;19.54;36.86
66396;BME280;53207;51.378;-1.342;2023-03-18T05:24:28;99032.88;;;19.06;36.84
66396;BME280;53207;51.378;-1.342;2023-03-18T05:26:56;99031.66;;;19.10;37.09
66396;BME280;53207;51.378;-1.342;2023-03-18T05:29:23;99029.90;;;19.53;36.83
66396;BME280;53207;51.378;-1.342;2023-03-18T05:31:50;99031.09;;;19.23;36.92
66396;BME280;53207;51.378;-1.342;2023-03-18T05:34:17;99030.55;;;19.51;36.83
66396;BME280;53207;51.378;-1.342;2023-03-18T05:36:45;99027.63;;;19.54;36.78
66396;BME280;53207;51.378;-1.342;2023-03-18T05:39:12;99028.94;;;19.41;36.94
66396;BME280;53207;51.378;-1.342;2023-03-18T05:41:39;99027.54;;;19.38;36.99
66396;BME280;53207;51.378;-1.342;2023-03-18T05:44:07;99032.10;;;19.19;36.90
66396;BME280;53207;51.378;-1.342;2023-03-18T05:46:34;99037.70;;;18.89;36.93
66396;BME280;53207;51.378;-1.342;2023-03-18T05:49:01;99043.08;;;19.44;36.84
66396;BME280;53207;51.378;-1.342;2023-03-18T05:51:28;99045.58;;;19.30;37.00
66396;BME280;53207;51.378;-1.342;2023-03-18T05:53:56;99046.38;;;19.42;36.86
66396;BME280;53207;51.378;-1.342;2023-03-18T05:56:23;99044.64;;;19.38;36.87
66396;BME280;53207;51.378;-1.342;2023-03-18T05:58:50;99043.86;;;19.46;36.79
66396;BME280;53207;51.378;-1.342;2023-03-18T06:01:18;99045.93;;;19.37;36.89
66396;BME280;53207;51.378;-1.342;2023-03-18T06:03:45;99045.24;;;19.25;36.74
66396;BME280;53207;51.378;-1.342;2023-03-18T06:06:12;99049.07;;;18.96;37.07
66396;BME280;53207;51.378;-1.342;2023-03-18T06:08:40;99046.72;;;19.27;36.98
66396;BME280;53207;51.378;-1.342;2023-03-18T06:11:07;99046.99;;;19.41;36.77
66396;BME280;53207;51.378;-1.342;2023-03-18T06:13:34;99047.78;;;19.05;36.94
66396;BME280;53207;51.378;-1.342;2023-03-18T06:16:02;99047.21;;;19.27;36.92
66396;BME280;53207;51.378;-1.342;2023-03-18T06:18:29;99055.92;;;18.90;37.10
66396;BME280;53207;51.378;-1.342;2023-03-18T06:20:56;99058.07;;;18.88;37.13
66396;BME280;53207;51.378;-1.342;2023-03-18T06:23:23;99060.36;;;18.95;37.02
66396;BME280;53207;51.378;-1.342;2023-03-18T06:25:51;99066.41;;;19.12;36.85
66396;BME280;53207;51.378;-1.342;2023-03-18T06:28:18;99068.44;;;19.10;36.80
66396;BME280;53207;51.378;-1.342;2023-03-18T06:30:46;99071.76;;;19.06;36.85
66396;BME280;53207;51.378;-1.342;2023-03-18T06:33:13;99072.49;;;18.89;37.09
66396;BME280;53207;51.378;-1.342;2023-03-18T06:35:40;99073.47;;;19.07;37.12
66396;BME280;53207;51.378;-1.342;2023-03-18T06:38:07;99074.11;;;19.28;36.82
66396;BME280;53207;51.378;-1.342;2023-03-18T06:40:35;99075.83;;;19.20;36.93
66396;BME280;53207;51.378;-1.342;2023-03-18T06:43:02;99077.57;;;19.15;36.96
66396;BME280;53207;51.378;-1.342;2023-03-18T06:45:29;99080.29;;;19.17;36.93
66396;BME280;53207;51.378;-1.342;2023-03-18T06:47:56;99082.55;;;18.98;36.88
66396;BME280;53207;51.378;-1.342;2023-03-18T06:50:24;99082.04;;;19.22;36.85
66396;BME280;53207;51.378;-1.342;2023-03-18T06:52:51;99081.95;;;19.20;36.88
66396;BME280;53207;51.378;-1.342;2023-03-18T06:55:18;99084.25;;;19.06;36.74
66396;BME280;53207;51.378;-1.342;2023-03-18T06:57:46;99087.11;;;19.10;36.95
66396;BME280;53207;51.378;-1.342;2023-03-18T07:00:15;99092.29;;;19.15;36.89
66396;BME280;53207;51.378;-1.342;2023-03-18T07:02:43;99095.76;;;19.03;37.04
66396;BME280;53207;51.378;-1.342;2023-03-18T07:05:11;99094.30;;;19.00;37.07
66396;BME280;53207;51.378;-1.342;2023-03-18T07:07:39;99095.49;;;19.16;36.84
66396;BME280;53207;51.378;-1.342;2023-03-18T07:10:08;99099.53;;;19.37;36.58
66396;BME280;53207;51.378;-1.342;2023-03-18T07:12:35;99097.79;;;19.43;36.53
66396;BME280;53207;51.378;-1.342;2023-03-18T07:15:03;99099.56;;;19.29;36.51
66396;BME280;53207;51.378;-1.342;2023-03-18T07:17:31;99101.80;;;19.64;36.50
66396;BME280;53207;51.378;-1.342;2023-03-18T07:19:58;99100.66;;;19.67;36.34
66396;BME280;53207;51.378;-1.342;2023-03-18T07:22:25;99101.87;;;19.57;36.29
66396;BME280;53207;51.378;-1.342;2023-03-18T07:24:53;99103.17;;;19.80;36.15
66396;BME280;53207;51.378;-1.342;2023-03-18T07:27:20;99101.99;;;20.25;36.11
66396;BME280;53207;51.378;-1.342;2023-03-18T07:29:47;99104.41;;;20.13;36.01
66396;BME280;53207;51.378;-1.342;2023-03-18T07:32:15;99101.70;;;20.33;35.92
66396;BME280;53207;51.378;-1.342;2023-03-18T07:34:42;99105.01;;;20.48;35.83
66396;BME280;53207;51.378;-1.342;2023-03-18T07:37:09;99103.24;;;20.38;35.76
66396;BME280;53207;51.378;-1.342;2023-03-18T07:39:36;99107.67;;;20.49;35.69
66396;BME280;53207;51.378;-1.342;2023-03-18T07:42:04;99112.06;;;20.59;35.62
66396;BME280;53207;51.378;-1.342;2023-03-18T07:44:31;99113.57;;;20.85;35.62
66396;BME280;53207;51.378;-1.342;2023-03-18T07:46:58;99110.43;;;20.93;35.56
66396;BME280;53207;51.378;-1.342;2023-03-18T07:49:26;99111.53;;;20.72;35.53
66396;BME280;53207;51.378;-1.342;2023-03-18T07:51:53;99111.23;;;20.73;35.53
66396;BME280;53207;51.378;-1.342;2023-03-18T07:54:20;99113.87;;;20.78;35.49
66396;BME280;53207;51.378;-1.342;2023-03-18T07:56:47;99116.71;;;20.98;35.48
66396;BME280;53207;51.378;-1.342;2023-03-18T07:59:15;99118.67;;;21.00;35.47
66396;BME280;53207;51.378;-1.342;2023-03-18T08:01:42;99120.71;;;20.79;35.45
66396;BME280;53207;51.378;-1.342;2023-03-18T08:04:10;99121.17;;;20.75;35.44
66396;BME280;53207;51.378;-1.342;2023-03-18T08:06:37;99120.12;;;20.54;35.36
66396;BME280;53207;51.378;-1.342;2023-03-18T08:09:04;99121.70;;;20.73;35.35
66396;BME280;53207;51.378;-1.342;2023-03-18T08:11:31;99122.64;;;20.49;35.35
66396;BME280;53207;51.378;-1.342;2023-03-18T08:13:58;99124.37;;;20.94;35.32
66396;BME280;53207;51.378;-1.342;2023-03-18T08:16:26;99126.20;;;20.70;35.25
66396;BME280;53207;51.378;-1.342;2023-03-18T08:18:53;99124.83;;;20.68;35.25
66396;BME280;53207;51.378;-1.342;2023-03-18T08:21:20;99128.42;;;20.42;35.23
66396;BME280;53207;51.378;-1.342;2023-03-18T08:23:47;99127.56;;;20.62;35.26
66396;BME280;53207;51.378;-1.342;2023-03-18T08:26:15;99128.60;;;20.32;35.33
66396;BME280;53207;51.378;-1.342;2023-03-18T08:28:42;99129.31;;;20.78;35.34
66396;BME280;53207;51.378;-1.342;2023-03-18T08:31:09;99130.64;;;20.75;35.36
66396;BME280;53207;51.378;-1.342;2023-03-18T08:33:37;99130.80;;;20.74;35.34
66396;BME280;53207;51.378;-1.342;2023-03-18T08:36:06;99130.08;;;20.67;35.46
66396;BME280;53207;51.378;-1.342;2023-03-18T08:38:33;99129.79;;;20.44;35.50
66396;BME280;53207;51.378;-1.342;2023-03-18T08:41:00;99133.68;;;20.36;35.58
66396;BME280;53207;51.378;-1.342;2023-03-18T08:43:28;99136.39;;;20.62;35.53
66396;BME280;53207;51.378;-1.342;2023-03-18T08:45:55;99137.75;;;20.54;35.63
66396;BME280;53207;51.378;-1.342;2023-03-18T08:48:23;99134.99;;;20.36;35.58
66396;BME280;53207;51.378;-1.342;2023-03-18T08:50:50;99134.40;;;20.39;35.78
66396;BME280;53207;51.378;-1.342;2023-03-18T08:53:17;99138.30;;;20.47;35.71
66396;BME280;53207;51.378;-1.342;2023-03-18T08:55:45;99141.57;;;20.13;36.13
66396;BME280;53207;51.378;-1.342;2023-03-18T08:58:12;99146.65;;;20.27;35.95
66396;BME280;53207;51.378;-1.342;2023-03-18T09:00:41;99150.42;;;19.95;36.06
66396;BME280;53207;51.378;-1.342;2023-03-18T09:03:08;99153.88;;;20.32;35.88
66396;BME280;53207;51.378;-1.342;2023-03-18T09:05:36;99155.66;;;20.07;36.19
66396;BME280;53207;51.378;-1.342;2023-03-18T09:08:08;99152.09;;;20.00;36.30
66396;BME280;53207;51.378;-1.342;2023-03-18T09:10:35;99153.23;;;19.97;36.34
66396;BME280;53207;51.378;-1.342;2023-03-18T09:13:03;99155.66;;;20.05;36.21
66396;BME280;53207;51.378;-1.342;2023-03-18T09:15:30;99157.68;;;19.85;36.45
66396;BME280;53207;51.378;-1.342;2023-03-18T09:17:57;99156.97;;;19.72;36.36
66396;BME280;53207;51.378;-1.342;2023-03-18T09:20:25;99158.34;;;20.01;36.29
66396;BME280;53207;51.378;-1.342;2023-03-18T09:22:52;99158.85;;;19.92;36.42
66396;BME280;53207;51.378;-1.342;2023-03-18T09:25:19;99158.29;;;19.56;36.31
66396;BME280;53207;51.378;-1.342;2023-03-18T09:27:46;99159.31;;;19.96;36.31
66396;BME280;53207;51.378;-1.342;2023-03-18T09:30:14;99159.45;;;20.14;36.10
66396;BME280;53207;51.378;-1.342;2023-03-18T09:32:41;99162.91;;;20.33;35.84
66396;BME280;53207;51.378;-1.342;2023-03-18T09:35:09;99161.94;;;19.85;35.85
66396;BME280;53207;51.378;-1.342;2023-03-18T09:37:37;99166.09;;;19.95;36.30
66396;BME280;53207;51.378;-1.342;2023-03-18T09:40:06;99163.28;;;20.16;36.06
66396;BME280;53207;51.378;-1.342;2023-03-18T09:42:44;99163.20;;;20.26;35.95
66396;BME280;53207;51.378;-1.342;2023-03-18T09:45:29;99163.17;;;19.99;36.31
66396;BME280;53207;51.378;-1.342;2023-03-18T09:48:07;99165.35;;;19.96;36.36
66396;BME280;53207;51.378;-1.342;2023-03-18T09:50:46;99166.83;;;19.99;36.34
66396;BME280;53207;51.378;-1.342;2023-03-18T09:53:22;99169.94;;;20.04;35.97
66396;BME280;53207;51.378;-1.342;2023-03-18T09:55:55;99175.05;;;19.96;36.38
66396;BME280;53207;51.378;-1.342;2023-03-18T09:58:27;99179.32;;;19.56;36.61
66396;BME280;53207;51.378;-1.342;2023-03-18T10:00:58;99181.27;;;19.79;36.61
66396;BME280;53207;51.378;-1.342;2023-03-18T10:03:31;99183.18;;;19.71;36.73
66396;BME280;53207;51.378;-1.342;2023-03-18T10:06:05;99185.77;;;19.80;36.30
66396;BME280;53207;51.378;-1.342;2023-03-18T10:08:45;99184.15;;;19.97;36.11
66396;BME280;53207;51.378;-1.342;2023-03-18T10:11:22;99189.85;;;19.76;36.33
66396;BME280;53207;51.378;-1.342;2023-03-18T10:13:59;99193.21;;;19.89;36.47
66396;BME280;53207;51.378;-1.342;2023-03-18T10:16:41;99195.34;;;20.03;36.31
66396;BME280;53207;51.378;-1.342;2023-03-18T10:19:10;99197.47;;;19.79;36.57
66396;BME280;53207;51.378;-1.342;2023-03-18T10:21:43;99201.27;;;19.93;36.41
66396;BME280;53207;51.378;-1.342;2023-03-18T10:24:23;99200.75;;;20.32;35.96
66396;BME280;53207;51.378;-1.342;2023-03-18T10:26:59;99203.92;;;20.17;36.13
66396;BME280;53207;51.378;-1.342;2023-03-18T10:29:36;99203.72;;;20.43;35.80
66396;BME280;53207;51.378;-1.342;2023-03-18T10:32:16;99202.84;;;20.34;35.89
66396;BME280;53207;51.378;-1.342;2023-03-18T10:34:56;99203.87;;;20.42;35.77
66396;BME280;53207;51.378;-1.342;2023-03-18T10:37:35;99200.88;;;20.49;35.70
66396;BME280;53207;51.378;-1.342;2023-03-18T10:40:12;99202.35;;;20.26;35.71
66396;BME280;53207;51.378;-1.342;2023-03-18T10:42:41;99203.09;;;20.50;35.70
66396;BME280;53207;51.378;-1.342;2023-03-18T10:45:18;99209.56;;;20.51;35.68
66396;BME280;53207;51.378;-1.342;2023-03-18T10:47:52;99210.58;;;20.48;35.73
66396;BME280;53207;51.378;-1.342;2023-03-18T10:50:25;99215.24;;;20.28;35.95
66396;BME280;53207;51.378;-1.342;2023-03-18T10:53:00;99213.68;;;20.07;35.92
66396;BME280;53207;51.378;-1.342;2023-03-18T10:55:35;99215.01;;;20.36;35.86
66396;BME280;53207;51.378;-1.342;2023-03-18T10:58:14;99212.07;;;20.47;35.86
66396;BME280;53207;51.378;-1.342;2023-03-18T11:00:41;99210.31;;;20.36;36.02
66396;BME280;53207;51.378;-1.342;2023-03-18T11:03:18;99213.39;;;20.67;36.28
66396;BME280;53207;51.378;-1.342;2023-03-18T11:05:46;99213.24;;;20.48;36.27
66396;BME280;53207;51.378;-1.342;2023-03-18T11:08:34;99214.57;;;20.56;36.27
66396;BME280;53207;51.378;-1.342;2023-03-18T11:11:14;99215.75;;;20.83;36.31
66396;BME280;53207;51.378;-1.342;2023-03-18T11:13:45;99211.85;;;20.87;36.23
66396;BME280;53207;51.378;-1.342;2023-03-18T11:16:22;99209.00;;;20.68;36.20
66396;BME280;53207;51.378;-1.342;2023-03-18T11:18:50;99212.24;;;20.98;36.05
66396;BME280;53207;51.378;-1.342;2023-03-18T11:21:18;99212.35;;;20.78;36.02
66396;BME280;53207;51.378;-1.342;2023-03-18T11:23:52;99213.60;;;20.76;36.14
66396;BME280;53207;51.378;-1.342;2023-03-18T11:26:23;99212.31;;;20.61;35.98
66396;BME280;53207;51.378;-1.342;2023-03-18T11:28:54;99213.65;;;21.06;36.02
66396;BME280;53207;51.378;-1.342;2023-03-18T11:31:22;99211.95;;;20.86;36.01
66396;BME280;53207;51.378;-1.342;2023-03-18T11:33:56;99213.08;;;21.06;36.08
66396;BME280;53207;51.378;-1.342;2023-03-18T11:36:23;99214.32;;;21.11;35.98
66396;BME280;53207;51.378;-1.342;2023-03-18T11:38:56;99216.59;;;20.96;35.98
66396;BME280;53207;51.378;-1.342;2023-03-18T11:41:26;99215.82;;;20.89;36.04
66396;BME280;53207;51.378;-1.342;2023-03-18T11:43:55;99216.15;;;20.68;35.94
66396;BME280;53207;51.378;-1.342;2023-03-18T11:46:23;99217.07;;;20.76;35.93
66396;BME280;53207;51.378;-1.342;2023-03-18T11:48:52;99218.02;;;21.15;36.01
66396;BME280;53207;51.378;-1.342;2023-03-18T11:51:40;99219.49;;;20.94;36.08
66396;BME280;53207;51.378;-1.342;2023-03-18T11:54:17;99222.80;;;20.70;36.26
66396;BME280;53207;51.378;-1.342;2023-03-18T11:56:52;99223.85;;;20.63;36.32
66396;BME280;53207;51.378;-1.342;2023-03-18T11:59:29;99224.17;;;20.73;36.21
66396;BME280;53207;51.378;-1.342;2023-03-18T12:02:19;99228.02;;;20.65;36.18
66396;BME280;53207;51.378;-1.342;2023-03-18T12:05:16;99230.16;;;20.64;35.97
66396;BME280;53207;51.378;-1.342;2023-03-18T12:07:54;99232.35;;;20.55;35.98
66396;BME280;53207;51.378;-1.342;2023-03-18T12:10:25;99234.59;;;20.78;35.95
66396;BME280;53207;51.378;-1.342;2023-03-18T12:13:08;99233.99;;;20.55;35.64
66396;BME280;53207;51.378;-1.342;2023-03-18T12:15:45;99231.40;;;20.32;36.03
66396;BME280;53207;51.378;-1.342;2023-03-18T12:18:27;99229.06;;;20.27;36.21
66396;BME280;53207;51.378;-1.342;2023-03-18T12:21:03;99228.69;;;20.42;35.99
66396;BME280;53207;51.378;-1.342;2023-03-18T12:23:49;99230.00;;;20.22;36.10
66396;BME280;53207;51.378;-1.342;2023-03-18T12:26:22;99228.95;;;20.30;36.20
66396;BME280;53207;51.378;-1.342;2023-03-18T12:29:39;99224.29;;;20.23;36.26
66396;BME280;53207;51.378;-1.342;2023-03-18T12:32:22;99226.19;;;20.46;36.15
66396;BME280;53207;51.378;-1.342;2023-03-18T12:34:59;99223.43;;;20.50;36.14
66396;BME280;53207;51.378;-1.342;2023-03-18T12:37:40;99223.52;;;20.33;36.10
66396;BME280;53207;51.378;-1.342;2023-03-18T12:40:20;99220.66;;;20.15;36.09
66396;BME280;53207;51.378;-1.342;2023-03-18T12:43:01;99218.27;;;20.27;35.97
66396;BME280;53207;51.378;-1.342;2023-03-18T12:45:34;99221.23;;;20.73;35.93
66396;BME280;53207;51.378;-1.342;2023-03-18T12:48:08;99223.68;;;20.76;35.88
66396;BME280;53207;51.378;-1.342;2023-03-18T12:50:38;99227.61;;;20.80;35.70
66396;BME280;53207;51.378;-1.342;2023-03-18T12:53:12;99228.78;;;20.75;35.87
66396;BME280;53207;51.378;-1.342;2023-03-18T12:55:44;99227.87;;;20.75;35.76
66396;BME280;53207;51.378;-1.342;2023-03-18T12:58:15;99231.46;;;20.87;35.61
66396;BME280;53207;51.378;-1.342;2023-03-18T13:00:48;99232.12;;;20.96;35.54
66396;BME280;53207;51.378;-1.342;2023-03-18T13:03:27;99231.27;;;20.70;35.80